sensor_id;sensor_type;location;lat;lon;timestamp;P1;durP1;ratioP1;P2;durP2;ratioP2
74749;SDS011;63269;53.330;-6.288;2022-10-16T00:01:57;1.55;;;0.68;;
74749;SDS011;63269;53.330;-6.288;2022-10-16T00:04:22;1.92;;;0.68;;
74749;SDS011;63269;53.330;-6.288;2022-10-16T00:06:48;2.22;;;0.65;;
74749;SDS011;63269;53.330;-6.288;2022-10-16T00:09:13;1.50;;;0.82;;
74749;SDS011;63269;53.330;-6.288;2022-10-16T00:11:39;2.33;;;0.65;;
74749;SDS011;63269;53.330;-6.288;2022-10-16T00:14:09;2.13;;;0.57;;
74749;SDS011;63269;53.330;-6.288;2022-10-16T00:16:37;1.42;;;0.60;;
74749;SDS011;63269;53.330;-6.288;2022-10-16T00:19:03;1.80;;;0.60;;
74749;SDS011;63269;53.330;-6.288;2022-10-16T00:21:29;2.60;;;0.60;;
74749;SDS011;63269;53.330;-6.288;2022-10-16T00:23:57;2.35;;;0.50;;
74749;SDS011;63269;53.330;-6.288;2022-10-16T00:26:24;0.82;;;0.52;;
74749;SDS011;63269;53.330;-6.288;2022-10-16T00:28:50;2.42;;;0.63;;
74749;SDS011;63269;53.330;-6.288;2022-10-16T00:31:16;1.70;;;0.70;;
74749;SDS011;63269;53.330;-6.288;2022-10-16T00:33:43;1.88;;;0.88;;
74749;SDS011;63269;53.330;-6.288;2022-10-16T00:36:13;1.83;;;0.55;;
74749;SDS011;63269;53.330;-6.288;2022-10-16T00:38:39;1.30;;;0.60;;
74749;SDS011;63269;53.330;-6.288;2022-10-16T00:41:05;1.95;;;0.63;;
74749;SDS011;63269;53.330;-6.288;2022-10-16T00:43:33;1.75;;;0.50;;
74749;SDS011;63269;53.330;-6.288;2022-10-16T00:46:00;3.20;;;0.60;;
74749;SDS011;63269;53.330;-6.288;2022-10-16T00:48:26;2.55;;;0.70;;
74749;SDS011;63269;53.330;-6.288;2022-10-16T00:50:51;1.92;;;0.80;;
74749;SDS011;63269;53.330;-6.288;2022-10-16T00:53:17;1.35;;;0.60;;
74749;SDS011;63269;53.330;-6.288;2022-10-16T00:55:45;4.50;;;0.75;;
74749;SDS011;63269;53.330;-6.288;2022-10-16T00:58:11;1.17;;;0.47;;
74749;SDS011;63269;53.330;-6.288;2022-10-16T01:00:36;2.05;;;0.60;;
74749;SDS011;63269;53.330;-6.288;2022-10-16T01:03:03;0.98;;;0.55;;
74749;SDS011;63269;53.330;-6.288;2022-10-16T01:05:53;0.95;;;0.47;;
74749;SDS011;63269;53.330;-6.288;2022-10-16T01:08:31;1.42;;;0.43;;
74749;SDS011;63269;53.330;-6.288;2022-10-16T01:11:35;2.00;;;0.70;;
74749;SDS011;63269;53.330;-6.288;2022-10-16T01:17:03;2.30;;;0.60;;
74749;SDS011;63269;53.330;-6.288;2022-10-16T01:22:24;3.05;;;0.60;;
74749;SDS011;63269;53.330;-6.288;2022-10-16T01:24:51;1.55;;;0.55;;
74749;SDS011;63269;53.330;-6.288;2022-10-16T01:30:18;1.85;;;0.45;;
74749;SDS011;63269;53.330;-6.288;2022-10-16T01:33:01;2.45;;;0.80;;
74749;SDS011;63269;53.330;-6.288;2022-10-16T01:35:32;2.25;;;0.50;;
74749;SDS011;63269;53.330;-6.288;2022-10-16T01:38:07;1.83;;;0.50;;
74749;SDS011;63269;53.330;-6.288;2022-10-16T01:40:36;1.13;;;0.40;;
74749;SDS011;63269;53.330;-6.288;2022-10-16T01:43:05;1.70;;;0.95;;
74749;SDS011;63269;53.330;-6.288;2022-10-16T01:45:37;1.40;;;0.73;;
74749;SDS011;63269;53.330;-6.288;2022-10-16T01:48:05;1.10;;;0.50;;
74749;SDS011;63269;53.330;-6.288;2022-10-16T01:50:33;1.23;;;0.55;;
74749;SDS011;63269;53.330;-6.288;2022-10-16T01:53:01;2.50;;;0.90;;
74749;SDS011;63269;53.330;-6.288;2022-10-16T01:55:29;3.03;;;0.65;;
74749;SDS011;63269;53.330;-6.288;2022-10-16T01:57:57;2.03;;;0.63;;
74749;SDS011;63269;53.330;-6.288;2022-10-16T02:00:23;1.48;;;0.80;;
74749;SDS011;63269;53.330;-6.288;2022-10-16T02:02:50;2.63;;;0.77;;
74749;SDS011;63269;53.330;-6.288;2022-10-16T02:08:10;1.58;;;0.60;;
74749;SDS011;63269;53.330;-6.288;2022-10-16T02:10:36;1.25;;;0.45;;
74749;SDS011;63269;53.330;-6.288;2022-10-16T02:15:36;2.08;;;0.40;;
74749;SDS011;63269;53.330;-6.288;2022-10-16T02:18:02;2.08;;;0.50;;
74749;SDS011;63269;53.330;-6.288;2022-10-16T02:20:30;3.15;;;0.82;;
74749;SDS011;63269;53.330;-6.288;2022-10-16T02:22:58;2.35;;;0.40;;
74749;SDS011;63269;53.330;-6.288;2022-10-16T02:28:06;1.80;;;0.50;;
74749;SDS011;63269;53.330;-6.288;2022-10-16T02:30:48;1.48;;;0.55;;
74749;SDS011;63269;53.330;-6.288;2022-10-16T02:33:21;1.90;;;0.70;;
74749;SDS011;63269;53.330;-6.288;2022-10-16T02:35:48;2.85;;;0.82;;
74749;SDS011;63269;53.330;-6.288;2022-10-16T02:38:15;2.42;;;0.57;;
74749;SDS011;63269;53.330;-6.288;2022-10-16T02:40:41;2.15;;;0.50;;
74749;SDS011;63269;53.330;-6.288;2022-10-16T02:43:07;1.33;;;0.50;;
74749;SDS011;63269;53.330;-6.288;2022-10-16T02:45:34;1.60;;;0.43;;
74749;SDS011;63269;53.330;-6.288;2022-10-16T02:47:59;1.77;;;0.55;;
74749;SDS011;63269;53.330;-6.288;2022-10-16T02:50:24;1.85;;;0.65;;
74749;SDS011;63269;53.330;-6.288;2022-10-16T02:52:50;2.17;;;0.60;;
74749;SDS011;63269;53.330;-6.288;2022-10-16T02:55:15;4.63;;;0.65;;
74749;SDS011;63269;53.330;-6.288;2022-10-16T02:57:41;1.35;;;0.50;;
74749;SDS011;63269;53.330;-6.288;2022-10-16T03:00:07;3.85;;;1.02;;
74749;SDS011;63269;53.330;-6.288;2022-10-16T03:02:34;2.40;;;0.80;;
74749;SDS011;63269;53.330;-6.288;2022-10-16T03:05:00;2.28;;;0.60;;
74749;SDS011;63269;53.330;-6.288;2022-10-16T03:07:25;1.65;;;0.70;;
74749;SDS011;63269;53.330;-6.288;2022-10-16T03:09:51;4.15;;;0.68;;
74749;SDS011;63269;53.330;-6.288;2022-10-16T03:12:16;2.60;;;0.82;;
74749;SDS011;63269;53.330;-6.288;2022-10-16T03:14:41;1.48;;;0.70;;
74749;SDS011;63269;53.330;-6.288;2022-10-16T03:17:07;1.55;;;0.50;;
74749;SDS011;63269;53.330;-6.288;2022-10-16T03:19:32;2.17;;;0.68;;
74749;SDS011;63269;53.330;-6.288;2022-10-16T03:21:58;1.65;;;0.65;;
74749;SDS011;63269;53.330;-6.288;2022-10-16T03:24:23;1.50;;;0.40;;
74749;SDS011;63269;53.330;-6.288;2022-10-16T03:26:48;1.60;;;0.40;;
74749;SDS011;63269;53.330;-6.288;2022-10-16T03:29:14;1.83;;;0.57;;
74749;SDS011;63269;53.330;-6.288;2022-10-16T03:31:39;1.58;;;0.40;;
74749;SDS011;63269;53.330;-6.288;2022-10-16T03:34:06;2.50;;;0.77;;
74749;SDS011;63269;53.330;-6.288;2022-10-16T03:36:31;1.70;;;0.50;;
74749;SDS011;63269;53.330;-6.288;2022-10-16T03:38:56;2.80;;;0.70;;
74749;SDS011;63269;53.330;-6.288;2022-10-16T03:41:22;2.78;;;0.80;;
74749;SDS011;63269;53.330;-6.288;2022-10-16T03:43:47;1.42;;;0.50;;
74749;SDS011;63269;53.330;-6.288;2022-10-16T03:46:13;1.15;;;0.40;;
74749;SDS011;63269;53.330;-6.288;2022-10-16T03:48:38;1.63;;;0.90;;
74749;SDS011;63269;53.330;-6.288;2022-10-16T03:51:05;1.52;;;0.52;;
74749;SDS011;63269;53.330;-6.288;2022-10-16T03:53:30;2.03;;;0.57;;
74749;SDS011;63269;53.330;-6.288;2022-10-16T03:55:56;0.60;;;0.30;;
74749;SDS011;63269;53.330;-6.288;2022-10-16T03:58:21;2.72;;;0.85;;
74749;SDS011;63269;53.330;-6.288;2022-10-16T04:00:47;1.38;;;0.38;;
74749;SDS011;63269;53.330;-6.288;2022-10-16T04:03:13;0.77;;;0.40;;
74749;SDS011;63269;53.330;-6.288;2022-10-16T04:05:39;1.00;;;0.60;;
74749;SDS011;63269;53.330;-6.288;2022-10-16T04:08:04;1.38;;;0.45;;
74749;SDS011;63269;53.330;-6.288;2022-10-16T04:10:30;3.35;;;0.80;;
74749;SDS011;63269;53.330;-6.288;2022-10-16T04:12:56;1.98;;;0.60;;
74749;SDS011;63269;53.330;-6.288;2022-10-16T04:15:22;1.65;;;0.50;;
74749;SDS011;63269;53.330;-6.288;2022-10-16T04:17:48;1.25;;;0.47;;
74749;SDS011;63269;53.330;-6.288;2022-10-16T04:20:13;0.90;;;0.40;;
74749;SDS011;63269;53.330;-6.288;2022-10-16T04:22:38;2.05;;;0.50;;
74749;SDS011;63269;53.330;-6.288;2022-10-16T04:25:04;2.03;;;0.55;;
74749;SDS011;63269;53.330;-6.288;2022-10-16T04:27:30;1.45;;;0.52;;
74749;SDS011;63269;53.330;-6.288;2022-10-16T04:29:56;1.08;;;0.40;;
74749;SDS011;63269;53.330;-6.288;2022-10-16T04:32:22;1.02;;;0.40;;
74749;SDS011;63269;53.330;-6.288;2022-10-16T04:34:48;3.65;;;0.57;;
74749;SDS011;63269;53.330;-6.288;2022-10-16T04:37:13;2.05;;;0.50;;
74749;SDS011;63269;53.330;-6.288;2022-10-16T04:39:38;1.50;;;0.38;;
74749;SDS011;63269;53.330;-6.288;2022-10-16T04:42:04;1.60;;;0.40;;
74749;SDS011;63269;53.330;-6.288;2022-10-16T04:44:29;1.77;;;0.40;;
74749;SDS011;63269;53.330;-6.288;2022-10-16T04:46:55;2.92;;;0.90;;
74749;SDS011;63269;53.330;-6.288;2022-10-16T04:49:20;1.40;;;0.40;;
74749;SDS011;63269;53.330;-6.288;2022-10-16T04:51:45;0.98;;;0.50;;
74749;SDS011;63269;53.330;-6.288;2022-10-16T04:54:11;2.50;;;0.55;;
74749;SDS011;63269;53.330;-6.288;2022-10-16T04:56:36;1.02;;;0.40;;
74749;SDS011;63269;53.330;-6.288;2022-10-16T04:59:08;2.58;;;0.75;;
74749;SDS011;63269;53.330;-6.288;2022-10-16T05:01:34;3.35;;;0.50;;
74749;SDS011;63269;53.330;-6.288;2022-10-16T05:04:00;0.88;;;0.40;;
74749;SDS011;63269;53.330;-6.288;2022-10-16T05:06:25;1.02;;;0.30;;
74749;SDS011;63269;53.330;-6.288;2022-10-16T05:08:50;2.28;;;0.40;;
74749;SDS011;63269;53.330;-6.288;2022-10-16T05:11:16;2.05;;;0.45;;
74749;SDS011;63269;53.330;-6.288;2022-10-16T05:13:41;1.85;;;0.40;;
74749;SDS011;63269;53.330;-6.288;2022-10-16T05:16:07;0.95;;;0.38;;
74749;SDS011;63269;53.330;-6.288;2022-10-16T05:18:32;2.28;;;1.10;;
74749;SDS011;63269;53.330;-6.288;2022-10-16T05:20:57;1.13;;;0.50;;
74749;SDS011;63269;53.330;-6.288;2022-10-16T05:23:23;2.42;;;0.43;;
74749;SDS011;63269;53.330;-6.288;2022-10-16T05:25:55;1.52;;;0.40;;
74749;SDS011;63269;53.330;-6.288;2022-10-16T05:28:23;1.80;;;0.40;;
74749;SDS011;63269;53.330;-6.288;2022-10-16T05:30:49;1.48;;;0.35;;
74749;SDS011;63269;53.330;-6.288;2022-10-16T05:33:14;1.35;;;0.32;;
74749;SDS011;63269;53.330;-6.288;2022-10-16T05:35:40;0.50;;;0.20;;
74749;SDS011;63269;53.330;-6.288;2022-10-16T05:38:05;3.72;;;0.68;;
74749;SDS011;63269;53.330;-6.288;2022-10-16T05:40:31;2.90;;;0.40;;
74749;SDS011;63269;53.330;-6.288;2022-10-16T05:42:56;2.15;;;0.52;;
74749;SDS011;63269;53.330;-6.288;2022-10-16T05:45:21;1.45;;;0.85;;
74749;SDS011;63269;53.330;-6.288;2022-10-16T05:47:47;2.92;;;0.52;;
74749;SDS011;63269;53.330;-6.288;2022-10-16T05:50:12;1.02;;;0.30;;
74749;SDS011;63269;53.330;-6.288;2022-10-16T05:52:38;2.97;;;1.10;;
74749;SDS011;63269;53.330;-6.288;2022-10-16T05:55:03;2.60;;;0.40;;
74749;SDS011;63269;53.330;-6.288;2022-10-16T05:57:29;1.15;;;0.40;;
74749;SDS011;63269;53.330;-6.288;2022-10-16T05:59:55;1.65;;;0.30;;
74749;SDS011;63269;53.330;-6.288;2022-10-16T06:02:20;1.90;;;0.75;;
74749;SDS011;63269;53.330;-6.288;2022-10-16T06:04:45;1.77;;;0.45;;
74749;SDS011;63269;53.330;-6.288;2022-10-16T06:07:11;2.03;;;0.50;;
74749;SDS011;63269;53.330;-6.288;2022-10-16T06:09:36;1.27;;;0.40;;
74749;SDS011;63269;53.330;-6.288;2022-10-16T06:12:02;1.55;;;0.50;;
74749;SDS011;63269;53.330;-6.288;2022-10-16T06:14:27;1.10;;;0.50;;
74749;SDS011;63269;53.330;-6.288;2022-10-16T06:16:53;1.20;;;0.77;;
74749;SDS011;63269;53.330;-6.288;2022-10-16T06:19:18;0.88;;;0.30;;
74749;SDS011;63269;53.330;-6.288;2022-10-16T06:21:44;1.02;;;0.40;;
74749;SDS011;63269;53.330;-6.288;2022-10-16T06:24:09;1.50;;;0.30;;
74749;SDS011;63269;53.330;-6.288;2022-10-16T06:26:35;1.65;;;0.45;;
74749;SDS011;63269;53.330;-6.288;2022-10-16T06:29:00;1.63;;;0.50;;
74749;SDS011;63269;53.330;-6.288;2022-10-16T06:31:26;2.05;;;0.55;;
74749;SDS011;63269;53.330;-6.288;2022-10-16T06:33:54;2.05;;;0.43;;
74749;SDS011;63269;53.330;-6.288;2022-10-16T06:36:19;1.42;;;0.45;;
74749;SDS011;63269;53.330;-6.288;2022-10-16T06:38:45;1.73;;;0.30;;
74749;SDS011;63269;53.330;-6.288;2022-10-16T06:41:12;1.52;;;0.45;;
74749;SDS011;63269;53.330;-6.288;2022-10-16T06:43:38;1.63;;;0.60;;
74749;SDS011;63269;53.330;-6.288;2022-10-16T06:46:05;1.30;;;0.40;;
74749;SDS011;63269;53.330;-6.288;2022-10-16T06:48:34;1.73;;;0.40;;
74749;SDS011;63269;53.330;-6.288;2022-10-16T06:51:01;1.05;;;0.40;;
74749;SDS011;63269;53.330;-6.288;2022-10-16T06:53:28;2.60;;;0.25;;
74749;SDS011;63269;53.330;-6.288;2022-10-16T06:55:56;1.75;;;0.68;;
74749;SDS011;63269;53.330;-6.288;2022-10-16T06:58:22;1.60;;;0.40;;
74749;SDS011;63269;53.330;-6.288;2022-10-16T07:00:48;1.38;;;0.35;;
74749;SDS011;63269;53.330;-6.288;2022-10-16T07:03:14;2.10;;;0.40;;
74749;SDS011;63269;53.330;-6.288;2022-10-16T07:05:40;1.90;;;0.47;;
74749;SDS011;63269;53.330;-6.288;2022-10-16T07:08:06;2.88;;;0.85;;
74749;SDS011;63269;53.330;-6.288;2022-10-16T07:10:32;1.80;;;0.50;;
74749;SDS011;63269;53.330;-6.288;2022-10-16T07:12:58;1.63;;;0.43;;
74749;SDS011;63269;53.330;-6.288;2022-10-16T07:15:24;1.50;;;0.50;;
74749;SDS011;63269;53.330;-6.288;2022-10-16T07:17:50;1.13;;;0.40;;
74749;SDS011;63269;53.330;-6.288;2022-10-16T07:20:15;1.85;;;0.50;;
74749;SDS011;63269;53.330;-6.288;2022-10-16T07:22:40;2.03;;;0.55;;
74749;SDS011;63269;53.330;-6.288;2022-10-16T07:25:06;2.35;;;0.63;;
74749;SDS011;63269;53.330;-6.288;2022-10-16T07:27:32;1.67;;;0.50;;
74749;SDS011;63269;53.330;-6.288;2022-10-16T07:29:57;1.88;;;0.52;;
74749;SDS011;63269;53.330;-6.288;2022-10-16T07:32:23;1.08;;;0.30;;
74749;SDS011;63269;53.330;-6.288;2022-10-16T07:34:50;2.28;;;0.70;;
74749;SDS011;63269;53.330;-6.288;2022-10-16T07:37:16;2.22;;;0.40;;
74749;SDS011;63269;53.330;-6.288;2022-10-16T07:39:41;1.73;;;0.45;;
74749;SDS011;63269;53.330;-6.288;2022-10-16T07:42:07;3.05;;;0.77;;
74749;SDS011;63269;53.330;-6.288;2022-10-16T07:44:32;2.88;;;1.15;;
74749;SDS011;63269;53.330;-6.288;2022-10-16T07:46:58;2.08;;;0.52;;
74749;SDS011;63269;53.330;-6.288;2022-10-16T07:49:24;1.70;;;0.38;;
74749;SDS011;63269;53.330;-6.288;2022-10-16T07:51:49;1.38;;;0.40;;
74749;SDS011;63269;53.330;-6.288;2022-10-16T07:54:15;1.85;;;0.50;;
74749;SDS011;63269;53.330;-6.288;2022-10-16T07:56:40;1.60;;;0.57;;
74749;SDS011;63269;53.330;-6.288;2022-10-16T07:59:05;1.42;;;0.45;;
74749;SDS011;63269;53.330;-6.288;2022-10-16T08:01:31;1.30;;;0.40;;
74749;SDS011;63269;53.330;-6.288;2022-10-16T08:03:56;1.65;;;0.70;;
74749;SDS011;63269;53.330;-6.288;2022-10-16T08:06:22;2.17;;;0.47;;
74749;SDS011;63269;53.330;-6.288;2022-10-16T08:08:48;1.83;;;0.60;;
74749;SDS011;63269;53.330;-6.288;2022-10-16T08:11:13;2.83;;;0.80;;
74749;SDS011;63269;53.330;-6.288;2022-10-16T08:13:40;2.53;;;1.45;;
74749;SDS011;63269;53.330;-6.288;2022-10-16T08:16:06;2.42;;;0.57;;
74749;SDS011;63269;53.330;-6.288;2022-10-16T08:18:33;1.10;;;0.40;;
74749;SDS011;63269;53.330;-6.288;2022-10-16T08:21:00;1.83;;;0.50;;
74749;SDS011;63269;53.330;-6.288;2022-10-16T08:23:26;2.85;;;0.57;;
74749;SDS011;63269;53.330;-6.288;2022-10-16T08:25:54;14.63;;;11.23;;
74749;SDS011;63269;53.330;-6.288;2022-10-16T08:28:20;24.58;;;20.05;;
74749;SDS011;63269;53.330;-6.288;2022-10-16T08:30:46;21.02;;;15.15;;
74749;SDS011;63269;53.330;-6.288;2022-10-16T08:33:12;13.93;;;7.80;;
74749;SDS011;63269;53.330;-6.288;2022-10-16T08:35:37;9.63;;;1.65;;
74749;SDS011;63269;53.330;-6.288;2022-10-16T08:38:06;5.88;;;1.35;;
74749;SDS011;63269;53.330;-6.288;2022-10-16T08:40:32;4.57;;;1.48;;
74749;SDS011;63269;53.330;-6.288;2022-10-16T08:48:30;5.10;;;0.82;;
74749;SDS011;63269;53.330;-6.288;2022-10-16T08:51:01;4.38;;;0.95;;
74749;SDS011;63269;53.330;-6.288;2022-10-16T08:53:51;4.68;;;1.20;;
74749;SDS011;63269;53.330;-6.288;2022-10-16T08:56:17;3.63;;;1.02;;
74749;SDS011;63269;53.330;-6.288;2022-10-16T08:58:43;3.75;;;1.10;;
74749;SDS011;63269;53.330;-6.288;2022-10-16T09:01:14;2.47;;;0.82;;
74749;SDS011;63269;53.330;-6.288;2022-10-16T09:04:05;5.00;;;0.85;;
74749;SDS011;63269;53.330;-6.288;2022-10-16T09:06:36;6.03;;;0.98;;
74749;SDS011;63269;53.330;-6.288;2022-10-16T09:11:48;2.78;;;0.77;;
74749;SDS011;63269;53.330;-6.288;2022-10-16T09:17:28;3.42;;;0.90;;
74749;SDS011;63269;53.330;-6.288;2022-10-16T09:23:10;5.53;;;1.27;;
74749;SDS011;63269;53.330;-6.288;2022-10-16T09:25:47;4.68;;;1.05;;
74749;SDS011;63269;53.330;-6.288;2022-10-16T09:28:14;2.42;;;0.90;;
74749;SDS011;63269;53.330;-6.288;2022-10-16T09:30:40;6.10;;;1.73;;
74749;SDS011;63269;53.330;-6.288;2022-10-16T09:33:05;3.33;;;1.20;;
74749;SDS011;63269;53.330;-6.288;2022-10-16T09:35:33;2.70;;;1.10;;
74749;SDS011;63269;53.330;-6.288;2022-10-16T09:38:19;5.75;;;1.08;;
74749;SDS011;63269;53.330;-6.288;2022-10-16T09:40:49;6.25;;;1.20;;
74749;SDS011;63269;53.330;-6.288;2022-10-16T09:46:00;3.53;;;1.02;;
74749;SDS011;63269;53.330;-6.288;2022-10-16T09:51:03;2.90;;;0.80;;
74749;SDS011;63269;53.330;-6.288;2022-10-16T09:53:43;4.20;;;0.98;;
74749;SDS011;63269;53.330;-6.288;2022-10-16T09:58:50;4.32;;;1.30;;
74749;SDS011;63269;53.330;-6.288;2022-10-16T10:01:17;5.00;;;1.13;;
74749;SDS011;63269;53.330;-6.288;2022-10-16T10:03:43;3.35;;;1.02;;
74749;SDS011;63269;53.330;-6.288;2022-10-16T10:06:23;3.85;;;1.40;;
74749;SDS011;63269;53.330;-6.288;2022-10-16T10:08:55;4.15;;;1.25;;
74749;SDS011;63269;53.330;-6.288;2022-10-16T10:11:40;3.88;;;1.30;;
74749;SDS011;63269;53.330;-6.288;2022-10-16T10:14:18;3.30;;;0.85;;
74749;SDS011;63269;53.330;-6.288;2022-10-16T10:16:45;4.70;;;1.20;;
74749;SDS011;63269;53.330;-6.288;2022-10-16T10:19:17;3.40;;;1.20;;
74749;SDS011;63269;53.330;-6.288;2022-10-16T10:21:45;3.42;;;1.02;;
74749;SDS011;63269;53.330;-6.288;2022-10-16T10:24:11;3.45;;;1.50;;
74749;SDS011;63269;53.330;-6.288;2022-10-16T10:30:02;4.68;;;1.15;;
74749;SDS011;63269;53.330;-6.288;2022-10-16T10:33:00;4.35;;;1.35;;
74749;SDS011;63269;53.330;-6.288;2022-10-16T10:41:39;2.85;;;1.05;;
74749;SDS011;63269;53.330;-6.288;2022-10-16T10:47:04;5.07;;;1.35;;
74749;SDS011;63269;53.330;-6.288;2022-10-16T10:57:59;4.88;;;1.55;;
74749;SDS011;63269;53.330;-6.288;2022-10-16T11:03:26;4.85;;;1.35;;
74749;SDS011;63269;53.330;-6.288;2022-10-16T11:06:06;5.43;;;1.70;;
74749;SDS011;63269;53.330;-6.288;2022-10-16T11:08:46;2.95;;;1.30;;
74749;SDS011;63269;53.330;-6.288;2022-10-16T11:19:11;5.90;;;1.40;;
74749;SDS011;63269;53.330;-6.288;2022-10-16T11:22:00;4.30;;;1.20;;
74749;SDS011;63269;53.330;-6.288;2022-10-16T11:27:16;3.05;;;1.20;;
74749;SDS011;63269;53.330;-6.288;2022-10-16T11:29:52;4.25;;;1.30;;
74749;SDS011;63269;53.330;-6.288;2022-10-16T11:32:24;3.20;;;1.20;;
74749;SDS011;63269;53.330;-6.288;2022-10-16T11:35:00;2.95;;;1.45;;
74749;SDS011;63269;53.330;-6.288;2022-10-16T11:37:31;2.92;;;1.58;;
74749;SDS011;63269;53.330;-6.288;2022-10-16T11:40:03;3.90;;;1.50;;
74749;SDS011;63269;53.330;-6.288;2022-10-16T11:42:40;3.97;;;1.40;;
74749;SDS011;63269;53.330;-6.288;2022-10-16T11:56:22;3.88;;;1.40;;
74749;SDS011;63269;53.330;-6.288;2022-10-16T11:58:51;3.95;;;1.25;;
74749;SDS011;63269;53.330;-6.288;2022-10-16T12:07:21;5.55;;;1.38;;
74749;SDS011;63269;53.330;-6.288;2022-10-16T12:09:49;3.55;;;1.35;;
74749;SDS011;63269;53.330;-6.288;2022-10-16T12:15:18;3.53;;;1.50;;
74749;SDS011;63269;53.330;-6.288;2022-10-16T12:17:51;4.13;;;1.35;;
74749;SDS011;63269;53.330;-6.288;2022-10-16T12:22:49;4.32;;;1.15;;
74749;SDS011;63269;53.330;-6.288;2022-10-16T12:25:29;3.20;;;1.27;;
74749;SDS011;63269;53.330;-6.288;2022-10-16T12:30:30;4.40;;;1.75;;
74749;SDS011;63269;53.330;-6.288;2022-10-16T12:32:59;4.25;;;2.45;;
74749;SDS011;63269;53.330;-6.288;2022-10-16T12:35:27;5.05;;;1.63;;
74749;SDS011;63269;53.330;-6.288;2022-10-16T12:37:54;2.50;;;1.38;;
74749;SDS011;63269;53.330;-6.288;2022-10-16T12:40:31;4.25;;;1.35;;
74749;SDS011;63269;53.330;-6.288;2022-10-16T12:42:58;6.00;;;1.67;;
74749;SDS011;63269;53.330;-6.288;2022-10-16T12:45:28;5.35;;;1.73;;
74749;SDS011;63269;53.330;-6.288;2022-10-16T12:47:56;3.53;;;1.30;;
74749;SDS011;63269;53.330;-6.288;2022-10-16T12:50:32;4.88;;;1.70;;
74749;SDS011;63269;53.330;-6.288;2022-10-16T12:53:00;3.22;;;1.30;;
74749;SDS011;63269;53.330;-6.288;2022-10-16T12:55:26;5.07;;;1.52;;
74749;SDS011;63269;53.330;-6.288;2022-10-16T12:58:07;4.32;;;1.20;;
74749;SDS011;63269;53.330;-6.288;2022-10-16T13:05:52;4.70;;;1.50;;
74749;SDS011;63269;53.330;-6.288;2022-10-16T13:22:24;7.10;;;1.58;;
74749;SDS011;63269;53.330;-6.288;2022-10-16T13:24:58;4.85;;;1.50;;
74749;SDS011;63269;53.330;-6.288;2022-10-16T13:32:50;3.55;;;1.40;;
74749;SDS011;63269;53.330;-6.288;2022-10-16T13:35:24;3.58;;;1.42;;
74749;SDS011;63269;53.330;-6.288;2022-10-16T13:38:02;3.10;;;1.80;;
74749;SDS011;63269;53.330;-6.288;2022-10-16T13:40:48;4.57;;;1.55;;
74749;SDS011;63269;53.330;-6.288;2022-10-16T13:43:27;3.95;;;1.30;;
74749;SDS011;63269;53.330;-6.288;2022-10-16T13:45:55;3.30;;;1.48;;
74749;SDS011;63269;53.330;-6.288;2022-10-16T13:48:35;3.38;;;1.40;;
74749;SDS011;63269;53.330;-6.288;2022-10-16T13:51:05;5.30;;;1.48;;
74749;SDS011;63269;53.330;-6.288;2022-10-16T13:53:35;4.85;;;1.83;;
74749;SDS011;63269;53.330;-6.288;2022-10-16T13:56:02;5.30;;;1.80;;
74749;SDS011;63269;53.330;-6.288;2022-10-16T13:58:28;4.80;;;2.03;;
74749;SDS011;63269;53.330;-6.288;2022-10-16T14:01:02;3.63;;;1.63;;
74749;SDS011;63269;53.330;-6.288;2022-10-16T14:03:30;5.47;;;2.10;;
74749;SDS011;63269;53.330;-6.288;2022-10-16T14:05:58;4.50;;;1.60;;
74749;SDS011;63269;53.330;-6.288;2022-10-16T14:08:25;4.70;;;1.70;;
74749;SDS011;63269;53.330;-6.288;2022-10-16T14:10:53;4.55;;;1.80;;
74749;SDS011;63269;53.330;-6.288;2022-10-16T14:13:23;4.18;;;1.90;;
74749;SDS011;63269;53.330;-6.288;2022-10-16T14:16:10;3.35;;;1.60;;
74749;SDS011;63269;53.330;-6.288;2022-10-16T14:18:40;3.43;;;1.50;;
74749;SDS011;63269;53.330;-6.288;2022-10-16T14:21:06;3.05;;;1.60;;
74749;SDS011;63269;53.330;-6.288;2022-10-16T14:23:36;4.28;;;1.63;;
74749;SDS011;63269;53.330;-6.288;2022-10-16T14:28:34;3.58;;;1.83;;
74749;SDS011;63269;53.330;-6.288;2022-10-16T14:31:01;6.53;;;2.42;;
74749;SDS011;63269;53.330;-6.288;2022-10-16T14:38:34;3.85;;;2.28;;
74749;SDS011;63269;53.330;-6.288;2022-10-16T14:41:00;4.70;;;2.80;;
74749;SDS011;63269;53.330;-6.288;2022-10-16T14:43:35;4.10;;;2.05;;
74749;SDS011;63269;53.330;-6.288;2022-10-16T14:46:02;3.17;;;1.55;;
74749;SDS011;63269;53.330;-6.288;2022-10-16T14:48:30;3.65;;;1.80;;
74749;SDS011;63269;53.330;-6.288;2022-10-16T14:50:56;3.45;;;1.60;;
74749;SDS011;63269;53.330;-6.288;2022-10-16T14:53:21;2.55;;;1.70;;
74749;SDS011;63269;53.330;-6.288;2022-10-16T14:55:47;4.97;;;1.73;;
74749;SDS011;63269;53.330;-6.288;2022-10-16T14:58:20;6.18;;;2.90;;
74749;SDS011;63269;53.330;-6.288;2022-10-16T15:00:47;3.45;;;1.75;;
74749;SDS011;63269;53.330;-6.288;2022-10-16T15:03:12;4.65;;;2.08;;
74749;SDS011;63269;53.330;-6.288;2022-10-16T15:05:38;4.10;;;1.80;;
74749;SDS011;63269;53.330;-6.288;2022-10-16T15:08:03;3.80;;;1.80;;
74749;SDS011;63269;53.330;-6.288;2022-10-16T15:10:29;4.90;;;2.13;;
74749;SDS011;63269;53.330;-6.288;2022-10-16T15:12:57;4.30;;;2.15;;
74749;SDS011;63269;53.330;-6.288;2022-10-16T15:17:55;4.65;;;1.67;;
74749;SDS011;63269;53.330;-6.288;2022-10-16T15:20:22;5.47;;;1.95;;
74749;SDS011;63269;53.330;-6.288;2022-10-16T15:22:48;3.08;;;1.48;;
74749;SDS011;63269;53.330;-6.288;2022-10-16T15:27:56;3.47;;;1.42;;
74749;SDS011;63269;53.330;-6.288;2022-10-16T15:30:22;3.53;;;1.88;;
74749;SDS011;63269;53.330;-6.288;2022-10-16T15:32:47;4.65;;;2.00;;
74749;SDS011;63269;53.330;-6.288;2022-10-16T15:35:13;4.18;;;1.80;;
74749;SDS011;63269;53.330;-6.288;2022-10-16T15:37:38;2.50;;;1.48;;
74749;SDS011;63269;53.330;-6.288;2022-10-16T15:40:04;3.03;;;1.60;;
74749;SDS011;63269;53.330;-6.288;2022-10-16T15:42:30;4.68;;;1.85;;
74749;SDS011;63269;53.330;-6.288;2022-10-16T15:44:55;4.63;;;1.58;;
74749;SDS011;63269;53.330;-6.288;2022-10-16T15:47:20;5.07;;;1.70;;
74749;SDS011;63269;53.330;-6.288;2022-10-16T15:49:46;4.55;;;2.03;;
74749;SDS011;63269;53.330;-6.288;2022-10-16T15:52:12;6.25;;;2.00;;
74749;SDS011;63269;53.330;-6.288;2022-10-16T15:54:37;5.90;;;2.88;;
74749;SDS011;63269;53.330;-6.288;2022-10-16T15:57:02;3.63;;;1.60;;
74749;SDS011;63269;53.330;-6.288;2022-10-16T15:59:28;3.33;;;1.58;;
74749;SDS011;63269;53.330;-6.288;2022-10-16T16:01:53;5.20;;;1.83;;
74749;SDS011;63269;53.330;-6.288;2022-10-16T16:04:19;6.40;;;1.88;;
74749;SDS011;63269;53.330;-6.288;2022-10-16T16:06:44;5.05;;;1.80;;
74749;SDS011;63269;53.330;-6.288;2022-10-16T16:09:11;6.70;;;1.80;;
74749;SDS011;63269;53.330;-6.288;2022-10-16T16:11:37;5.70;;;1.90;;
74749;SDS011;63269;53.330;-6.288;2022-10-16T16:14:07;8.75;;;2.20;;
74749;SDS011;63269;53.330;-6.288;2022-10-16T16:16:33;5.28;;;2.20;;
74749;SDS011;63269;53.330;-6.288;2022-10-16T16:19:02;6.38;;;3.10;;
74749;SDS011;63269;53.330;-6.288;2022-10-16T16:21:28;3.88;;;1.73;;
74749;SDS011;63269;53.330;-6.288;2022-10-16T16:23:54;5.30;;;1.60;;
74749;SDS011;63269;53.330;-6.288;2022-10-16T16:26:29;6.65;;;1.80;;
74749;SDS011;63269;53.330;-6.288;2022-10-16T16:29:01;5.55;;;1.60;;
74749;SDS011;63269;53.330;-6.288;2022-10-16T16:31:28;6.30;;;1.60;;
74749;SDS011;63269;53.330;-6.288;2022-10-16T16:33:55;3.65;;;1.55;;
74749;SDS011;63269;53.330;-6.288;2022-10-16T16:36:21;4.60;;;1.70;;
74749;SDS011;63269;53.330;-6.288;2022-10-16T16:38:47;4.57;;;1.77;;
74749;SDS011;63269;53.330;-6.288;2022-10-16T16:41:13;6.35;;;1.90;;
74749;SDS011;63269;53.330;-6.288;2022-10-16T16:43:46;2.95;;;1.38;;
74749;SDS011;63269;53.330;-6.288;2022-10-16T16:46:12;5.20;;;1.98;;
74749;SDS011;63269;53.330;-6.288;2022-10-16T16:48:38;4.10;;;1.38;;
74749;SDS011;63269;53.330;-6.288;2022-10-16T16:51:15;4.07;;;1.65;;
74749;SDS011;63269;53.330;-6.288;2022-10-16T16:53:43;3.15;;;1.52;;
74749;SDS011;63269;53.330;-6.288;2022-10-16T16:56:10;6.57;;;1.38;;